Time;durP1;ratioP1;P1;durP2;ratioP2;P2;SDS_P1;SDS_P2;PMS_P1;PMS_P2;Temp;Humidity;BMP_temperature;BMP_pressure;BME280_temperature;BME280_humidity;BME280_pressure;Samples;Min_cycle;Max_cycle;Signal;HPM_P1;HPM_P2
2024/01/24 00:00:56;;;;;;;0.43;0.43;;;;;;;1.86;95.92;98734.81;5085213;28;20020;-67
2024/01/24 00:03:21;;;;;;;0.50;0.50;;;;;;;1.75;95.43;98718.59;5085319;28;20050;-68
2024/01/24 00:05:46;;;;;;;0.50;0.50;;;;;;;1.74;95.57;98710.09;5085195;28;20533;-67
2024/01/24 00:08:12;;;;;;;0.50;0.50;;;;;;;1.76;95.20;98687.06;5066981;28;20027;-67
2024/01/24 00:10:37;;;;;;;0.50;0.50;;;;;;;1.58;96.05;98678.53;5085032;28;20031;-66
2024/01/24 00:13:03;;;;;;;0.50;0.50;;;;;;;1.50;96.92;98675.13;5084837;28;20044;-66
2024/01/24 00:15:28;;;;;;;0.40;0.40;;;;;;;1.45;97.08;98640.16;5085325;28;20103;-67
2024/01/24 00:17:53;;;;;;;0.50;0.50;;;;;;;1.55;97.09;98637.63;5084824;28;20025;-66
2024/01/24 00:20:18;;;;;;;0.50;0.50;;;;;;;1.63;97.22;98609.47;5084860;28;20025;-67
2024/01/24 00:22:44;;;;;;;0.50;0.50;;;;;;;1.64;96.92;98589.00;5084626;28;20045;-67
2024/01/24 00:25:09;;;;;;;0.50;0.50;;;;;;;1.60;97.58;98589.84;5066883;28;20465;-67
2024/01/24 00:27:34;;;;;;;0.50;0.50;;;;;;;1.86;96.25;98560.81;5084965;28;20067;-67
2024/01/24 00:30:00;;;;;;;0.40;0.40;;;;;;;1.89;95.95;98513.88;5084682;28;20032;-68
2024/01/24 00:32:25;;;;;;;0.40;0.40;;;;;;;1.98;95.24;98512.13;5066907;28;20127;-67
2024/01/24 00:34:50;;;;;;;0.50;0.50;;;;;;;2.09;95.28;98513.81;5084773;28;20024;-68
2024/01/24 00:37:16;;;;;;;0.50;0.50;;;;;;;1.98;96.92;98483.16;5066804;28;20032;-67
2024/01/24 00:39:41;;;;;;;0.40;0.40;;;;;;;2.05;96.80;98455.78;5084588;28;20085;-67
2024/01/24 00:42:06;;;;;;;0.40;0.40;;;;;;;2.27;96.20;98461.63;5084819;28;20040;-67
2024/01/24 00:44:32;;;;;;;0.40;0.40;;;;;;;2.25;97.25;98454.84;5084632;28;20086;-67
2024/01/24 00:46:57;;;;;;;0.50;0.50;;;;;;;2.18;97.94;98436.09;5084686;28;20044;-68
2024/01/24 00:49:22;;;;;;;0.40;0.40;;;;;;;2.34;98.54;98429.16;5084587;28;20025;-67
2024/01/24 00:51:48;;;;;;;0.50;0.50;;;;;;;2.56;98.20;98409.34;5084878;28;20028;-67
2024/01/24 00:54:13;;;;;;;0.50;0.50;;;;;;;2.52;98.49;98417.09;5084768;28;20020;-68
2024/01/24 00:56:40;;;;;;;0.50;0.50;;;;;;;2.34;99.71;98399.28;5084797;28;20044;-69
2024/01/24 00:59:05;;;;;;;0.57;0.57;;;;;;;2.46;99.76;98395.78;5066593;28;20021;-67
2024/01/24 01:01:30;;;;;;;0.50;0.50;;;;;;;2.45;100.00;98359.94;5084677;28;20029;-68
2024/01/24 01:03:56;;;;;;;0.40;0.40;;;;;;;2.75;99.38;98342.56;5084514;28;20020;-66
2024/01/24 01:06:22;;;;;;;0.50;0.50;;;;;;;2.82;99.60;98338.25;5066548;28;20032;-67
2024/01/24 01:08:48;;;;;;;0.50;0.50;;;;;;;2.92;99.39;98328.75;5066447;28;20353;-67
2024/01/24 01:11:13;;;;;;;0.40;0.40;;;;;;;2.70;100.00;98322.13;5084523;28;20027;-66
2024/01/24 01:13:38;;;;;;;0.50;0.50;;;;;;;2.69;100.00;98306.75;5084221;28;20024;-67
2024/01/24 01:16:04;;;;;;;0.50;0.50;;;;;;;2.88;100.00;98292.03;5084380;28;20024;-67
2024/01/24 01:18:29;;;;;;;0.50;0.50;;;;;;;2.72;100.00;98284.53;5084341;28;20326;-67
2024/01/24 01:20:55;;;;;;;0.40;0.40;;;;;;;2.89;100.00;98282.66;5084361;28;20115;-67
2024/01/24 01:23:20;;;;;;;0.50;0.50;;;;;;;2.88;100.00;98266.41;5084738;28;20024;-68
2024/01/24 01:25:45;;;;;;;0.40;0.40;;;;;;;2.89;100.00;98257.84;5084486;28;20048;-67
2024/01/24 01:28:11;;;;;;;0.50;0.50;;;;;;;2.84;100.00;98260.47;5084120;28;20525;-67
2024/01/24 01:30:36;;;;;;;0.50;0.50;;;;;;;2.87;100.00;98258.75;5084272;28;20020;-67
2024/01/24 01:33:01;;;;;;;0.50;0.50;;;;;;;3.04;100.00;98261.09;5084426;28;20020;-67
2024/01/24 01:35:27;;;;;;;0.50;0.50;;;;;;;2.95;100.00;98242.41;5087211;28;20029;-67
2024/01/24 01:37:52;;;;;;;0.50;0.50;;;;;;;2.90;100.00;98228.81;5087851;28;20139;-67
2024/01/24 01:40:18;;;;;;;0.50;0.50;;;;;;;2.90;100.00;98208.28;5087685;28;20029;-66
2024/01/24 01:42:44;;;;;;;0.40;0.40;;;;;;;2.94;100.00;98233.00;5087746;28;20571;-67
2024/01/24 01:45:10;;;;;;;0.50;0.50;;;;;;;3.03;100.00;98192.75;5087643;28;20032;-67
2024/01/24 01:47:37;;;;;;;0.50;0.50;;;;;;;2.99;100.00;98186.81;5087348;28;20041;-67
2024/01/24 01:50:05;;;;;;;0.40;0.40;;;;;;;3.13;100.00;98191.75;5087454;28;20037;-67
2024/01/24 01:52:31;;;;;;;0.40;0.40;;;;;;;3.13;100.00;98184.06;5087461;28;20459;-67
2024/01/24 01:54:57;;;;;;;0.47;0.47;;;;;;;3.12;100.00;98158.44;5087285;28;20024;-67
2024/01/24 01:57:22;;;;;;;1.08;1.08;;;;;;;3.27;100.00;98063.34;5087304;28;20017;-67
2024/01/24 01:59:48;;;;;;;0.45;0.45;;;;;;;3.19;100.00;98117.31;5069085;28;20016;-67
2024/01/24 02:02:15;;;;;;;0.40;0.40;;;;;;;3.17;100.00;98124.19;5087298;28;20028;-68
2024/01/24 02:04:40;;;;;;;0.50;0.50;;;;;;;3.16;100.00;98119.94;5069064;28;20059;-68
2024/01/24 02:07:06;;;;;;;0.50;0.50;;;;;;;3.26;100.00;98104.41;5087268;28;20024;-66
2024/01/24 02:09:32;;;;;;;0.50;0.50;;;;;;;3.44;100.00;98095.53;5069002;28;20052;-67
2024/01/24 02:11:57;;;;;;;0.50;0.50;;;;;;;3.19;100.00;98090.81;5087073;28;20024;-67
2024/01/24 02:14:22;;;;;;;0.40;0.40;;;;;;;3.18;100.00;98081.44;5068978;28;20031;-67
2024/01/24 02:16:48;;;;;;;0.40;0.40;;;;;;;3.11;100.00;98073.00;5069000;28;20031;-67
2024/01/24 02:19:13;;;;;;;0.40;0.40;;;;;;;3.13;100.00;98068.66;5086965;28;20025;-68
2024/01/24 02:21:38;;;;;;;0.40;0.40;;;;;;;3.18;100.00;98041.25;5086900;28;20511;-67
2024/01/24 02:24:09;;;;;;;0.40;0.40;;;;;;;3.09;100.00;98043.97;5086866;28;20027;-67
2024/01/24 02:26:34;;;;;;;0.40;0.40;;;;;;;3.07;100.00;98031.16;5086930;28;20048;-67
2024/01/24 02:28:59;;;;;;;0.40;0.40;;;;;;;3.17;100.00;98025.88;5086743;28;20021;-69
2024/01/24 02:31:25;;;;;;;0.40;0.40;;;;;;;3.31;100.00;98008.56;5086546;28;20028;-69
2024/01/24 02:33:50;;;;;;;0.40;0.40;;;;;;;3.20;100.00;98015.56;5086671;28;20483;-67
2024/01/24 02:36:15;;;;;;;0.40;0.40;;;;;;;3.11;100.00;98014.03;5068774;28;20016;-68
2024/01/24 02:38:41;;;;;;;0.40;0.40;;;;;;;3.09;100.00;98021.75;5086421;28;20491;-68
2024/01/24 02:41:07;;;;;;;0.40;0.40;;;;;;;3.24;100.00;97990.75;5086753;28;20048;-68
2024/01/24 02:43:33;;;;;;;0.50;0.50;;;;;;;3.19;100.00;97980.56;5086364;28;20055;-68
2024/01/24 02:45:59;;;;;;;0.40;0.40;;;;;;;3.22;100.00;97978.81;5085916;28;20095;-68
2024/01/24 02:48:24;;;;;;;0.40;0.40;;;;;;;3.23;100.00;97966.81;5086344;28;20032;-68
2024/01/24 02:50:50;;;;;;;0.40;0.40;;;;;;;3.22;100.00;97950.59;5086421;28;20383;-68
2024/01/24 02:53:15;;;;;;;0.40;0.40;;;;;;;3.37;100.00;97929.81;5086437;28;20384;-67
2024/01/24 02:55:41;;;;;;;0.40;0.40;;;;;;;3.28;100.00;97943.63;5086264;28;20043;-68
2024/01/24 02:58:06;;;;;;;0.40;0.40;;;;;;;3.32;100.00;97911.94;5085999;28;20032;-67
2024/01/24 03:00:31;;;;;;;0.50;0.50;;;;;;;3.37;100.00;97929.81;5086322;28;20056;-67
2024/01/24 03:02:57;;;;;;;0.40;0.40;;;;;;;3.47;100.00;97926.19;5086308;28;20468;-67
2024/01/24 03:05:22;;;;;;;0.50;0.50;;;;;;;3.49;100.00;97921.03;5086150;28;20024;-68
2024/01/24 03:07:48;;;;;;;0.40;0.40;;;;;;;3.64;100.00;97918.16;5086297;28;20036;-68
2024/01/24 03:10:13;;;;;;;0.40;0.40;;;;;;;3.70;100.00;97894.94;5085826;28;20021;-68
2024/01/24 03:12:38;;;;;;;0.40;0.40;;;;;;;3.74;100.00;97898.28;5068246;28;20062;-67
2024/01/24 03:15:05;;;;;;;0.40;0.40;;;;;;;3.80;100.00;97892.19;5085756;28;20043;-67
2024/01/24 03:17:32;;;;;;;0.40;0.40;;;;;;;3.88;100.00;97885.16;5086258;28;20023;-68
2024/01/24 03:19:57;;;;;;;0.40;0.40;;;;;;;3.99;100.00;97872.09;5085986;28;20483;-68
2024/01/24 03:22:24;;;;;;;0.50;0.50;;;;;;;4.11;100.00;97865.81;5085852;28;20024;-67
2024/01/24 03:24:51;;;;;;;0.40;0.40;;;;;;;4.21;100.00;97853.59;5086008;28;20109;-68
2024/01/24 03:27:16;;;;;;;0.40;0.40;;;;;;;4.31;100.00;97857.63;5085892;28;20020;-68
2024/01/24 03:29:42;;;;;;;0.40;0.40;;;;;;;4.37;100.00;97848.94;5067245;28;20067;-68
2024/01/24 03:32:07;;;;;;;0.40;0.40;;;;;;;4.43;100.00;97853.94;5085727;28;20027;-67
2024/01/24 03:34:33;;;;;;;0.40;0.40;;;;;;;4.46;100.00;97850.44;5085397;28;20089;-67
2024/01/24 03:36:58;;;;;;;0.40;0.40;;;;;;;4.45;100.00;97839.34;5085711;28;20047;-67
2024/01/24 03:39:23;;;;;;;0.40;0.40;;;;;;;4.48;100.00;97846.09;5085368;28;20030;-68
2024/01/24 03:41:49;;;;;;;0.40;0.40;;;;;;;4.46;100.00;97848.72;5085424;28;20032;-68
2024/01/24 03:44:14;;;;;;;0.40;0.40;;;;;;;4.44;100.00;97853.03;5085340;28;20021;-68
2024/01/24 03:46:39;;;;;;;0.40;0.40;;;;;;;4.45;100.00;97851.31;5085258;28;20048;-68
2024/01/24 03:49:05;;;;;;;0.40;0.40;;;;;;;4.41;100.00;97836.88;5085399;28;20025;-68
2024/01/24 03:51:30;;;;;;;0.40;0.40;;;;;;;4.43;100.00;97835.94;5085316;28;20031;-66
2024/01/24 03:53:56;;;;;;;0.40;0.40;;;;;;;4.45;100.00;97844.47;5085441;28;20083;-67
2024/01/24 03:56:21;;;;;;;0.35;0.35;;;;;;;4.46;100.00;97830.72;5084717;28;20024;-67
2024/01/24 03:58:47;;;;;;;0.40;0.40;;;;;;;4.51;100.00;97840.88;5083880;28;20047;-67
2024/01/24 04:01:13;;;;;;;0.40;0.40;;;;;;;4.57;100.00;97835.59;5067295;28;20062;-67
2024/01/24 04:03:38;;;;;;;0.40;0.40;;;;;;;4.66;100.00;97834.53;5085015;28;20028;-67
2024/01/24 04:06:03;;;;;;;0.40;0.40;;;;;;;4.71;100.00;97829.28;5085334;28;20025;-67
2024/01/24 04:08:29;;;;;;;0.40;0.40;;;;;;;4.74;100.00;97828.34;5085185;28;20056;-67
2024/01/24 04:10:54;;;;;;;0.40;0.40;;;;;;;4.80;100.00;97828.16;5084999;28;20050;-67
2024/01/24 04:13:20;;;;;;;0.40;0.40;;;;;;;4.80;100.00;97825.59;5084924;28;20016;-66
2024/01/24 04:15:45;;;;;;;0.40;0.40;;;;;;;4.88;100.00;97823.66;5085068;28;20048;-68
2024/01/24 04:18:10;;;;;;;0.40;0.40;;;;;;;4.86;100.00;97815.16;5084910;28;20031;-67
2024/01/24 04:20:36;;;;;;;0.40;0.40;;;;;;;4.94;100.00;97802.09;5085071;28;20062;-67
2024/01/24 04:23:01;;;;;;;0.40;0.40;;;;;;;4.95;100.00;97807.19;5085007;28;20025;-67
2024/01/24 04:25:26;;;;;;;0.40;0.40;;;;;;;5.00;100.00;97808.81;5066669;28;20035;-66
2024/01/24 04:27:52;;;;;;;0.40;0.40;;;;;;;5.03;100.00;97803.56;5084887;28;20031;-67
2024/01/24 04:30:17;;;;;;;0.35;0.35;;;;;;;5.03;100.00;97798.44;5084768;28;20027;-67
2024/01/24 04:32:42;;;;;;;0.40;0.40;;;;;;;4.99;100.00;97782.22;5084895;28;20052;-67
2024/01/24 04:35:08;;;;;;;0.40;0.40;;;;;;;5.04;100.00;97800.97;5084746;28;20042;-68
2024/01/24 04:37:33;;;;;;;0.38;0.38;;;;;;;5.04;100.00;97788.09;5067036;28;20023;-67
2024/01/24 04:39:59;;;;;;;0.40;0.40;;;;;;;4.96;100.00;97769.47;5066552;28;20077;-67
2024/01/24 04:42:24;;;;;;;0.40;0.40;;;;;;;5.03;100.00;97786.38;5084766;28;20482;-67
2024/01/24 04:44:50;;;;;;;0.40;0.40;;;;;;;4.93;100.00;97766.97;5084583;28;20044;-67
2024/01/24 04:47:15;;;;;;;1.10;1.10;;;;;;;4.98;100.00;97780.56;5066537;28;20049;-67
2024/01/24 04:49:41;;;;;;;0.40;0.40;;;;;;;4.93;100.00;97772.97;5084487;28;20021;-66
2024/01/24 04:52:06;;;;;;;0.40;0.40;;;;;;;4.98;100.00;97782.28;5066694;28;20024;-67
2024/01/24 04:54:35;;;;;;;0.40;0.40;;;;;;;4.99;100.00;97776.25;5084643;28;20084;-67
2024/01/24 04:57:01;;;;;;;0.40;0.40;;;;;;;4.99;100.00;97778.81;5084612;28;20061;-67
2024/01/24 04:59:28;;;;;;;0.40;0.40;;;;;;;4.99;100.00;97771.94;5084524;28;20034;-67
2024/01/24 05:01:54;;;;;;;0.40;0.40;;;;;;;5.01;100.00;97775.31;5084436;28;20028;-67
2024/01/24 05:04:19;;;;;;;0.40;0.40;;;;;;;5.07;100.00;97784.59;5084596;28;20033;-66
2024/01/24 05:06:44;;;;;;;0.40;0.40;;;;;;;5.11;100.00;97778.50;5084721;28;20074;-67
2024/01/24 05:09:10;;;;;;;0.40;0.40;;;;;;;5.11;100.00;97768.19;5087115;28;20012;-68
2024/01/24 05:11:35;;;;;;;0.40;0.40;;;;;;;5.18;100.00;97767.13;5088351;28;20034;-67
2024/01/24 05:14:00;;;;;;;0.40;0.40;;;;;;;5.22;100.00;97773.03;5088190;28;20355;-67
2024/01/24 05:16:28;;;;;;;0.40;0.40;;;;;;;5.26;100.00;97778.91;5084410;23;20060;-68
2024/01/24 05:18:54;;;;;;;0.40;0.40;;;;;;;5.31;100.00;97767.63;5087749;28;20024;-68
2024/01/24 05:21:19;;;;;;;0.40;0.40;;;;;;;5.30;100.00;97757.38;5087914;28;20046;-68
2024/01/24 05:23:45;;;;;;;0.40;0.40;;;;;;;5.37;100.00;97771.72;5068776;23;20046;-62
2024/01/24 05:26:10;;;;;;;0.40;0.40;;;;;;;5.43;100.00;97776.69;5116437;22;20040;-65
2024/01/24 05:28:35;;;;;;;0.40;0.40;;;;;;;5.41;100.00;97762.19;5126911;22;20047;-62
2024/01/24 05:31:01;;;;;;;0.40;0.40;;;;;;;5.48;100.00;97762.84;5128560;28;20051;-63
2024/01/24 05:33:26;;;;;;;0.40;0.40;;;;;;;5.49;100.00;97759.38;5128884;28;20020;-62
2024/01/24 05:35:52;;;;;;;0.40;0.40;;;;;;;5.51;100.00;97757.59;5128466;28;20026;-62
2024/01/24 08:29:31;;;;;;;0.50;0.50;;;;;;;5.15;100.00;97762.06;3251548;28;22542;-63
2024/01/24 08:31:57;;;;;;;0.40;0.40;;;;;;;5.25;100.00;97761.78;5061342;28;20057;-68
2024/01/24 08:34:22;;;;;;;0.40;0.40;;;;;;;5.19;100.00;97757.69;5064373;28;20039;-68
2024/01/24 08:36:47;;;;;;;0.50;0.50;;;;;;;5.21;100.00;97749.03;5046265;28;20100;-68
2024/01/24 08:39:14;;;;;;;0.40;0.40;;;;;;;5.22;100.00;97757.59;5064515;28;20047;-67
2024/01/24 08:41:40;;;;;;;0.40;0.40;;;;;;;5.18;100.00;97767.13;5046382;28;20515;-68
2024/01/24 08:44:05;;;;;;;0.40;0.40;;;;;;;5.25;100.00;97765.22;5067117;28;20028;-68
2024/01/24 08:46:31;;;;;;;0.40;0.40;;;;;;;5.28;100.00;97772.00;5068430;28;20036;-68
2024/01/24 08:48:56;;;;;;;0.40;0.40;;;;;;;5.27;100.00;97767.75;5068566;28;20580;-68
2024/01/24 08:51:24;;;;;;;0.40;0.40;;;;;;;5.27;100.00;97766.00;5068343;28;20036;-68
2024/01/24 08:53:49;;;;;;;0.40;0.40;;;;;;;5.27;100.00;97772.91;5068365;28;20084;-68
2024/01/24 08:56:15;;;;;;;0.40;0.40;;;;;;;5.33;100.00;97790.72;5068136;28;20029;-68
2024/01/24 08:58:40;;;;;;;0.40;0.40;;;;;;;5.34;100.00;97779.53;5068112;28;20358;-68
2024/01/24 09:01:06;;;;;;;0.40;0.40;;;;;;;5.34;100.00;97776.97;5067928;28;20033;-67
2024/01/24 09:03:31;;;;;;;0.40;0.40;;;;;;;5.35;100.00;97777.81;5067857;28;20025;-69
2024/01/24 09:05:57;;;;;;;0.40;0.40;;;;;;;5.36;100.00;97782.06;5084944;22;20151;-68
2024/01/24 09:08:22;;;;;;;0.40;0.40;;;;;;;5.35;100.00;97791.53;5068376;28;20360;-68
2024/01/24 09:10:48;;;;;;;0.40;0.40;;;;;;;5.35;100.00;97783.81;5068031;28;20020;-68
2024/01/24 09:13:13;;;;;;;0.38;0.38;;;;;;;5.30;100.00;97781.34;5067950;28;20028;-68
2024/01/24 09:15:39;;;;;;;0.40;0.40;;;;;;;5.28;100.00;97790.84;5067668;28;20032;-68
2024/01/24 09:18:07;;;;;;;0.40;0.40;;;;;;;5.24;100.00;97791.00;5067957;28;20025;-68
2024/01/24 09:20:32;;;;;;;0.40;0.40;;;;;;;5.27;100.00;97788.31;5067599;28;20021;-68
2024/01/24 09:22:58;;;;;;;0.50;0.50;;;;;;;5.21;100.00;97800.47;5049837;28;20144;-68
2024/01/24 09:25:23;;;;;;;0.40;0.40;;;;;;;5.19;100.00;97799.66;5067513;28;20048;-68
2024/01/24 09:27:49;;;;;;;0.40;0.40;;;;;;;5.23;100.00;97804.72;5067758;28;20025;-67
2024/01/24 09:30:14;;;;;;;0.40;0.40;;;;;;;5.21;100.00;97813.34;5049122;28;20045;-67
2024/01/24 09:32:40;;;;;;;0.40;0.40;;;;;;;5.17;100.00;97793.75;5067513;28;20020;-67
2024/01/24 09:35:05;;;;;;;0.40;0.40;;;;;;;5.11;100.00;97791.34;5075686;22;20025;-68
2024/01/24 09:37:31;;;;;;;0.40;0.40;;;;;;;5.11;100.00;97799.06;5076240;22;20068;-62
2024/01/24 09:39:56;;;;;;;0.40;0.40;;;;;;;5.18;100.00;97795.41;5073592;22;20120;-65
2024/01/24 09:42:25;;;;;;;0.40;0.40;;;;;;;5.23;100.00;97815.00;5059521;23;20112;-61
2024/01/24 09:44:51;;;;;;;0.40;0.40;;;;;;;5.27;100.00;97811.47;5065623;28;20061;-62
2024/01/24 09:47:18;;;;;;;0.30;0.30;;;;;;;5.25;100.00;97808.09;5067436;28;20373;-62
2024/01/24 09:49:44;;;;;;;0.40;0.40;;;;;;;5.28;100.00;97816.59;5067256;28;20021;-61
2024/01/24 09:52:12;;;;;;;0.40;0.40;;;;;;;5.29;100.00;97814.84;5067231;28;20389;-62
2024/01/24 09:54:38;;;;;;;0.40;0.40;;;;;;;5.28;100.00;97818.31;5066036;28;20025;-61
2024/01/24 09:57:04;;;;;;;0.40;0.40;;;;;;;5.15;100.00;97790.38;5066944;28;20021;-62
2024/01/24 09:59:30;;;;;;;0.40;0.40;;;;;;;5.26;100.00;97820.91;5048538;28;20069;-61
2024/01/24 10:01:56;;;;;;;0.40;0.40;;;;;;;5.27;100.00;97816.63;5067037;28;20029;-62
2024/01/24 10:04:24;;;;;;;0.40;0.40;;;;;;;5.29;100.00;97820.81;5066849;28;20020;-62
2024/01/24 10:06:50;;;;;;;0.40;0.40;;;;;;;5.31;100.00;97824.22;5066981;28;20025;-62
2024/01/24 10:09:15;;;;;;;0.40;0.40;;;;;;;5.33;100.00;97826.75;5066855;28;20025;-62
2024/01/24 10:11:40;;;;;;;0.40;0.40;;;;;;;5.36;100.00;97824.06;5048694;28;20027;-62
2024/01/24 10:14:06;;;;;;;0.40;0.40;;;;;;;5.32;100.00;97817.31;5048928;28;20443;-62
2024/01/24 10:16:31;;;;;;;0.40;0.40;;;;;;;5.34;100.00;97820.69;5066650;28;20032;-62
2024/01/24 10:18:57;;;;;;;0.40;0.40;;;;;;;5.28;100.00;97816.59;5048700;28;20050;-62
2024/01/24 10:21:23;;;;;;;0.40;0.40;;;;;;;5.33;100.00;97821.59;5066651;28;20025;-62
2024/01/24 10:23:49;;;;;;;0.40;0.40;;;;;;;5.36;100.00;97829.22;5048863;28;20021;-62
2024/01/24 10:26:15;;;;;;;0.40;0.40;;;;;;;5.38;100.00;97824.03;5048730;28;20085;-61
2024/01/24 10:28:42;;;;;;;0.40;0.40;;;;;;;5.40;100.00;97823.09;5066755;28;20028;-62
2024/01/24 10:31:09;;;;;;;0.40;0.40;;;;;;;5.41;100.00;97829.94;5048272;28;20032;-62
2024/01/24 10:33:34;;;;;;;0.40;0.40;;;;;;;5.41;100.00;97829.09;5066709;28;20049;-61
2024/01/24 10:36:00;;;;;;;0.40;0.40;;;;;;;5.40;100.00;97820.50;5066640;28;20051;-62
2024/01/24 10:38:31;;;;;;;0.40;0.40;;;;;;;5.43;100.00;97835.88;5066372;28;20029;-61
2024/01/24 10:41:01;;;;;;;0.40;0.40;;;;;;;5.44;100.00;97832.44;5066464;28;20033;-61
2024/01/24 10:43:28;;;;;;;0.40;0.40;;;;;;;5.45;100.00;97825.53;5047937;28;20037;-62
2024/01/24 10:45:54;;;;;;;0.40;0.40;;;;;;;5.41;100.00;97823.94;5066187;28;20491;-61
2024/01/24 10:48:19;;;;;;;0.40;0.40;;;;;;;5.43;100.00;97833.28;5066360;28;20025;-60
2024/01/24 10:50:45;;;;;;;0.40;0.40;;;;;;;5.41;100.00;97822.22;5066245;28;20021;-61
2024/01/24 10:53:14;;;;;;;0.40;0.40;;;;;;;5.43;100.00;97828.16;5066223;28;20020;-61
2024/01/24 10:55:41;;;;;;;0.40;0.40;;;;;;;5.42;100.00;97816.19;5066127;28;20100;-62
2024/01/24 10:58:10;;;;;;;0.40;0.40;;;;;;;5.46;100.00;97815.19;5047956;28;20123;-61
2024/01/24 11:00:37;;;;;;;0.40;0.40;;;;;;;5.46;100.00;97815.19;5065682;28;20032;-61
2024/01/24 11:03:03;;;;;;;0.40;0.40;;;;;;;5.44;100.00;97821.28;5048144;28;20483;-62
2024/01/24 11:05:34;;;;;;;0.40;0.40;;;;;;;5.45;100.00;97815.22;5065626;28;20080;-62
2024/01/24 11:08:05;;;;;;;0.40;0.40;;;;;;;5.48;100.00;97796.31;5066109;28;20036;-67
2024/01/24 11:10:34;;;;;;;0.40;0.40;;;;;;;5.50;100.00;97815.09;5065753;28;20047;-67
2024/01/24 11:13:01;;;;;;;0.40;0.40;;;;;;;5.49;100.00;97796.25;5066032;28;20025;-67
2024/01/24 11:15:29;;;;;;;0.40;0.40;;;;;;;5.51;100.00;97794.47;5065599;28;20021;-68
2024/01/24 11:18:22;;;;;;;0.40;0.40;;;;;;;5.65;100.00;97799.22;5065807;28;20047;-67
2024/01/24 11:20:59;;;;;;;0.40;0.40;;;;;;;5.69;100.00;97802.53;5065632;28;20031;-68
2024/01/24 11:23:45;;;;;;;0.40;0.40;;;;;;;5.73;100.00;97798.13;5065808;28;20035;-68
2024/01/24 11:26:17;;;;;;;0.40;0.40;;;;;;;5.77;100.00;97802.28;5065563;28;20044;-69
2024/01/24 11:28:43;;;;;;;0.50;0.50;;;;;;;5.77;100.00;97791.97;5065987;28;20024;-69
2024/01/24 11:31:09;;;;;;;0.40;0.40;;;;;;;5.79;100.00;97811.66;5065145;28;20025;-68
2024/01/24 11:33:35;;;;;;;0.32;0.32;;;;;;;5.80;100.00;97805.59;5065608;28;20029;-69
2024/01/24 11:36:05;;;;;;;0.40;0.40;;;;;;;5.82;100.00;97810.72;5065779;28;20013;-69
2024/01/24 11:38:35;;;;;;;0.40;0.40;;;;;;;5.81;100.00;97807.28;5065463;28;20511;-67
2024/01/24 11:41:00;;;;;;;0.40;0.40;;;;;;;5.82;100.00;97793.53;5065521;28;20048;-68
2024/01/24 11:43:31;;;;;;;0.40;0.40;;;;;;;5.76;100.00;97796.31;5065082;28;20467;-67
2024/01/24 11:45:58;;;;;;;0.40;0.40;;;;;;;5.77;100.00;97799.69;5065090;28;20037;-67
2024/01/24 11:48:28;;;;;;;0.40;0.40;;;;;;;5.74;100.00;97797.22;5065355;28;20029;-67
2024/01/24 11:51:02;;;;;;;0.35;0.35;;;;;;;5.71;100.00;97805.91;5065336;28;20020;-67
2024/01/24 11:53:28;;;;;;;0.40;0.40;;;;;;;5.67;100.00;97806.88;5065414;28;20051;-67
2024/01/24 11:55:59;;;;;;;0.40;0.40;;;;;;;5.67;100.00;97805.13;5065236;28;20032;-67
2024/01/24 11:58:26;;;;;;;0.40;0.40;;;;;;;5.66;100.00;97806.03;5047204;28;20481;-67
2024/01/24 12:01:00;;;;;;;0.30;0.30;;;;;;;5.68;100.00;97798.28;5047172;28;20059;-67
2024/01/24 12:03:26;;;;;;;0.40;0.40;;;;;;;5.69;100.00;97802.53;5065365;28;20316;-67
2024/01/24 12:05:52;;;;;;;0.40;0.40;;;;;;;5.67;100.00;97807.72;5065187;28;20020;-67
2024/01/24 12:08:18;;;;;;;0.40;0.40;;;;;;;5.63;100.00;97800.13;5065216;28;20103;-68
2024/01/24 12:10:44;;;;;;;0.40;0.40;;;;;;;5.63;100.00;97807.84;5047109;28;20017;-67
2024/01/24 12:13:10;;;;;;;0.40;0.40;;;;;;;5.65;100.00;97813.81;5065034;28;20063;-68
2024/01/24 12:15:36;;;;;;;0.40;0.40;;;;;;;5.61;100.00;97805.31;5065114;28;20088;-67
2024/01/24 12:18:04;;;;;;;0.40;0.40;;;;;;;5.63;100.00;97815.56;5064582;28;20033;-66
2024/01/24 12:20:30;;;;;;;0.40;0.40;;;;;;;5.59;100.00;97809.69;5064719;28;20020;-67
2024/01/24 12:22:56;;;;;;;0.40;0.40;;;;;;;5.61;100.00;97814.81;5065247;28;20037;-68
2024/01/24 12:25:22;;;;;;;0.40;0.40;;;;;;;5.59;100.00;97822.56;5064999;28;20025;-68
2024/01/24 12:27:48;;;;;;;0.40;0.40;;;;;;;5.60;100.00;97813.94;5065072;28;20103;-67
2024/01/24 12:30:14;;;;;;;0.40;0.40;;;;;;;5.59;100.00;97825.16;5064952;28;20412;-67
2024/01/24 12:32:40;;;;;;;0.40;0.40;;;;;;;5.56;100.00;97813.19;5064927;28;20025;-68
2024/01/24 12:35:06;;;;;;;0.40;0.40;;;;;;;5.57;100.00;97834.63;5065026;28;20017;-68
2024/01/24 12:37:32;;;;;;;0.40;0.40;;;;;;;5.55;100.00;97823.53;5064966;28;20132;-67
2024/01/24 12:40:05;;;;;;;0.30;0.30;;;;;;;5.57;100.00;97835.44;5047040;28;20024;-67
2024/01/24 12:42:31;;;;;;;0.30;0.30;;;;;;;5.53;100.00;97812.44;5063187;28;20388;-68
2024/01/24 12:44:56;;;;;;;0.40;0.40;;;;;;;5.56;100.00;97840.66;5044930;28;20061;-68
2024/01/24 12:47:22;;;;;;;0.40;0.40;;;;;;;5.54;100.00;97838.13;5045179;28;20021;-68
2024/01/24 12:49:48;;;;;;;0.40;0.40;;;;;;;5.55;100.00;97844.97;5045091;28;20088;-69
2024/01/24 12:52:13;;;;;;;0.38;0.38;;;;;;;5.55;100.00;97834.69;5045074;28;20029;-68
2024/01/24 12:54:38;;;;;;;0.40;0.40;;;;;;;5.58;100.00;97844.03;5044938;28;20056;-67
2024/01/24 12:57:04;;;;;;;0.40;0.40;;;;;;;5.61;100.00;97843.13;5045020;28;20033;-68
2024/01/24 12:59:29;;;;;;;0.40;0.40;;;;;;;5.65;100.00;97853.28;5044886;28;20013;-68
2024/01/24 13:01:56;;;;;;;0.40;0.40;;;;;;;5.69;100.00;97860.00;5044860;28;20525;-67
2024/01/24 13:04:22;;;;;;;0.40;0.40;;;;;;;5.70;100.00;97835.94;5045068;28;20028;-67
2024/01/24 13:06:47;;;;;;;0.40;0.40;;;;;;;5.72;100.00;97842.78;5044619;28;20030;-68
2024/01/24 13:09:12;;;;;;;0.40;0.40;;;;;;;5.66;100.00;97848.94;5044954;28;20018;-67
2024/01/24 13:11:38;;;;;;;0.40;0.40;;;;;;;5.74;100.00;97859.00;5062304;23;20049;-61
2024/01/24 13:14:03;;;;;;;0.40;0.40;;;;;;;5.74;100.00;97872.75;5052500;23;20041;-67
2024/01/24 13:16:29;;;;;;;0.40;0.40;;;;;;;5.78;100.00;97868.34;5064691;28;20075;-68
2024/01/24 13:18:54;;;;;;;0.40;0.40;;;;;;;5.74;100.00;97853.88;5064325;28;20473;-66
2024/01/24 13:21:20;;;;;;;0.30;0.30;;;;;;;5.78;100.00;97869.16;5061158;28;20021;-66
2024/01/24 13:23:45;;;;;;;0.40;0.40;;;;;;;5.66;100.00;97860.09;5064547;28;20050;-68
2024/01/24 13:26:11;;;;;;;0.40;0.40;;;;;;;5.79;100.00;97882.91;5064600;28;20021;-68
2024/01/24 13:28:36;;;;;;;0.40;0.40;;;;;;;5.80;100.00;97876.84;5064669;28;20027;-66
2024/01/24 13:31:02;;;;;;;0.40;0.40;;;;;;;5.78;100.00;97865.78;5068096;28;20055;-66
2024/01/24 13:33:27;;;;;;;0.30;0.30;;;;;;;5.78;100.00;97869.16;5068173;28;20084;-66
2024/01/24 13:35:53;;;;;;;0.40;0.40;;;;;;;5.76;100.00;97870.97;5050133;28;20464;-65
2024/01/24 13:38:18;;;;;;;4.68;1.63;;;;;;;5.75;100.00;97882.13;5067797;28;20032;-66
2024/01/24 13:40:44;;;;;;;0.40;0.40;;;;;;;5.78;100.00;97896.66;5067485;28;20129;-66
2024/01/24 13:43:10;;;;;;;0.40;0.40;;;;;;;5.78;100.00;97894.09;5084181;22;20529;-69
2024/01/24 13:45:35;;;;;;;0.40;0.40;;;;;;;5.79;100.00;97895.78;5067540;28;20053;-70
2024/01/24 13:48:04;;;;;;;0.40;0.40;;;;;;;5.75;100.00;97904.47;5056546;23;20072;-63
2024/01/24 13:50:29;;;;;;;0.40;0.40;;;;;;;5.84;100.00;97909.34;5074706;23;20178;-63
2024/01/24 13:52:55;;;;;;;0.40;0.40;;;;;;;5.79;100.00;97906.06;5065364;22;20060;-63
2024/01/24 13:55:20;;;;;;;0.40;0.40;;;;;;;5.88;100.00;97920.41;5071868;23;20132;-69
2024/01/24 13:57:46;;;;;;;0.40;0.40;;;;;;;5.90;100.00;97932.34;5067437;28;20127;-69
2024/01/24 14:00:13;;;;;;;0.40;0.40;;;;;;;5.90;100.00;97934.06;5049581;28;20017;-69
2024/01/24 14:02:39;;;;;;;0.40;0.40;;;;;;;5.90;100.00;97940.09;5067362;28;20025;-70
2024/01/24 14:05:04;;;;;;;0.40;0.40;;;;;;;5.89;100.00;97938.41;5049471;28;20059;-70
2024/01/24 14:07:30;;;;;;;0.40;0.40;;;;;;;5.91;100.00;97940.94;5067581;28;20033;-69
2024/01/24 14:09:55;;;;;;;0.40;0.40;;;;;;;5.92;100.00;97938.31;5067566;28;20020;-70
2024/01/24 14:12:21;;;;;;;0.40;0.40;;;;;;;5.93;100.00;97960.59;5068557;23;20045;-63
2024/01/24 14:14:46;;;;;;;0.40;0.40;;;;;;;5.93;100.00;97963.16;5047153;28;20090;-63
2024/01/24 14:17:12;;;;;;;0.40;0.40;;;;;;;5.99;100.00;97958.72;5047569;28;20032;-63
2024/01/24 14:19:37;;;;;;;0.40;0.40;;;;;;;5.98;100.00;97967.31;5047179;28;20044;-63